Time;durP1;ratioP1;P1;durP2;ratioP2;P2;SDS_P1;SDS_P2;PMS_P1;PMS_P2;Temp;Humidity;BMP_temperature;BMP_pressure;BME280_temperature;BME280_humidity;BME280_pressure;Samples;Min_cycle;Max_cycle;Signal;HPM_P1;HPM_P2
2022/02/22 00:00:00;;;;;;;18.55;3.30;;;;;;;;;;530967;27;1605;-79
2022/02/22 00:00:17;;;;;;;16.03;3.03;;;;;;;;;;530079;27;922;-80
2022/02/22 00:00:32;;;;;;;15.13;3.00;;;;;;;;;;533022;27;981;-80
2022/02/22 00:00:48;;;;;;;17.23;3.23;;;;;;;;;;529572;28;1273;-79
2022/02/22 00:01:03;;;;;;;17.17;3.08;;;;;;;;;;529557;28;1208;-79
2022/02/22 00:01:18;;;;;;;16.53;3.07;;;;;;;;;;529414;28;1134;-79
2022/02/22 00:01:33;;;;;;;16.67;3.20;;;;;;;;;;527247;28;1166;-80
2022/02/22 00:01:49;;;;;;;17.13;3.17;;;;;;;;;;526992;28;819;-80
2022/02/22 00:02:04;;;;;;;16.37;3.00;;;;;;;;;;527405;28;887;-80
2022/02/22 00:02:19;;;;;;;16.30;3.00;;;;;;;;;;529520;28;804;-80
2022/02/22 00:02:35;;;;;;;15.88;3.30;;;;;;;;;;530291;28;886;-79
2022/02/22 00:02:50;;;;;;;16.77;3.33;;;;;;;;;;528102;28;828;-79
2022/02/22 00:03:06;;;;;;;17.73;3.23;;;;;;;;;;527982;28;809;-79
2022/02/22 00:03:22;;;;;;;17.17;3.03;;;;;;;;;;527413;28;1300;-79
2022/02/22 00:03:38;;;;;;;16.52;3.10;;;;;;;;;;527696;28;1507;-79
2022/02/22 00:03:53;;;;;;;14.80;3.07;;;;;;;;;;526526;28;1385;-79
2022/02/22 00:04:08;;;;;;;18.70;3.40;;;;;;;;;;527467;28;1420;-79
2022/02/22 00:04:26;;;;;;;20.85;3.67;;;;;;;;;;525330;28;1169;-80
2022/02/22 00:04:43;;;;;;;16.20;3.10;;;;;;;;;;525882;28;846;-79
2022/02/22 00:04:59;;;;;;;16.55;2.92;;;;;;;;;;527937;28;2235;-79
2022/02/22 00:05:14;;;;;;;19.67;3.40;;;;;;;;;;528922;28;878;-79
2022/02/22 00:05:30;;;;;;;16.90;3.28;;;;;;;;;;529588;28;1146;-79
2022/02/22 00:05:45;;;;;;;15.03;2.97;;;;;;;;;;529784;28;1142;-80
2022/02/22 00:06:00;;;;;;;17.13;3.13;;;;;;;;;;530125;28;720;-79
2022/02/22 00:06:15;;;;;;;15.47;3.00;;;;;;;;;;529484;28;823;-81
2022/02/22 00:06:31;;;;;;;14.88;2.80;;;;;;;;;;529772;28;870;-80
2022/02/22 00:06:46;;;;;;;16.67;2.90;;;;;;;;;;529217;28;768;-80
2022/02/22 00:07:01;;;;;;;15.53;2.83;;;;;;;;;;531710;27;899;-80
2022/02/22 00:07:17;;;;;;;15.93;2.78;;;;;;;;;;531483;27;890;-80
2022/02/22 00:07:32;;;;;;;17.23;3.00;;;;;;;;;;531556;27;1355;-80
2022/02/22 00:07:47;;;;;;;17.20;3.10;;;;;;;;;;529779;28;1260;-80
2022/02/22 00:08:03;;;;;;;17.55;3.22;;;;;;;;;;528518;28;729;-80
2022/02/22 00:08:18;;;;;;;17.80;3.07;;;;;;;;;;528093;28;1080;-77
2022/02/22 00:08:34;;;;;;;15.93;2.80;;;;;;;;;;525844;28;1258;-77
2022/02/22 00:08:49;;;;;;;15.33;3.13;;;;;;;;;;527492;28;1207;-77
2022/02/22 00:09:04;;;;;;;14.97;3.20;;;;;;;;;;527935;28;760;-76
2022/02/22 00:09:20;;;;;;;15.60;3.00;;;;;;;;;;529001;28;856;-81
2022/02/22 00:09:35;;;;;;;17.53;3.10;;;;;;;;;;529755;28;989;-80
2022/02/22 00:09:50;;;;;;;17.37;3.30;;;;;;;;;;531167;27;902;-82
2022/02/22 00:10:08;;;;;;;15.90;3.28;;;;;;;;;;529376;27;1533;-81
2022/02/22 00:10:23;;;;;;;14.15;2.85;;;;;;;;;;530047;27;768;-81
2022/02/22 00:10:39;;;;;;;16.13;3.10;;;;;;;;;;531320;27;744;-81
2022/02/22 00:10:54;;;;;;;16.63;3.20;;;;;;;;;;531177;27;1194;-81
2022/02/22 00:11:09;;;;;;;15.93;3.05;;;;;;;;;;529491;28;1386;-80
2022/02/22 00:11:26;;;;;;;18.07;3.00;;;;;;;;;;527319;28;1421;-81
2022/02/22 00:11:41;;;;;;;18.55;3.17;;;;;;;;;;527481;28;918;-80
2022/02/22 00:11:56;;;;;;;16.38;3.33;;;;;;;;;;526760;28;1314;-80
2022/02/22 00:12:11;;;;;;;16.03;3.20;;;;;;;;;;524651;28;1151;-79
2022/02/22 00:12:27;;;;;;;13.40;2.83;;;;;;;;;;523660;28;1373;-80
2022/02/22 00:12:43;;;;;;;13.03;2.70;;;;;;;;;;524492;28;974;-80
2022/02/22 00:12:58;;;;;;;16.90;3.00;;;;;;;;;;526627;28;1396;-81
2022/02/22 00:13:14;;;;;;;17.20;3.10;;;;;;;;;;526654;28;1202;-80
2022/02/22 00:13:29;;;;;;;18.67;3.20;;;;;;;;;;528244;28;953;-79
2022/02/22 00:13:45;;;;;;;17.15;3.10;;;;;;;;;;528349;28;765;-80
2022/02/22 00:14:00;;;;;;;16.60;3.30;;;;;;;;;;528137;28;783;-81
2022/02/22 00:14:15;;;;;;;17.03;3.27;;;;;;;;;;528321;28;1273;-81
2022/02/22 00:14:31;;;;;;;17.23;3.10;;;;;;;;;;528121;28;859;-80
2022/02/22 00:14:46;;;;;;;16.92;3.10;;;;;;;;;;527941;28;1283;-81
2022/02/22 00:15:03;;;;;;;15.37;3.03;;;;;;;;;;528488;28;1542;-81
2022/02/22 00:15:18;;;;;;;16.42;3.03;;;;;;;;;;529571;27;799;-81
2022/02/22 00:15:33;;;;;;;16.87;2.90;;;;;;;;;;529891;27;802;-81
2022/02/22 00:15:48;;;;;;;14.47;2.80;;;;;;;;;;528240;28;772;-81
2022/02/22 00:16:05;;;;;;;14.57;3.07;;;;;;;;;;529008;27;873;-81
2022/02/22 00:16:21;;;;;;;14.18;3.13;;;;;;;;;;530468;27;994;-81
2022/02/22 00:16:36;;;;;;;15.40;3.15;;;;;;;;;;528584;28;1145;-81
2022/02/22 00:16:55;;;;;;;17.33;3.20;;;;;;;;;;528550;28;1178;-81
2022/02/22 00:17:10;;;;;;;15.38;3.10;;;;;;;;;;527313;28;1517;-80
2022/02/22 00:17:33;;;;;;;18.13;3.10;;;;;;;;;;525749;28;1444;-80
2022/02/22 00:17:48;;;;;;;18.17;3.05;;;;;;;;;;526092;28;1404;-80
2022/02/22 00:18:03;;;;;;;18.30;3.30;;;;;;;;;;526217;28;1366;-81
2022/02/22 00:18:19;;;;;;;17.30;3.30;;;;;;;;;;526287;28;1405;-80
2022/02/22 00:18:34;;;;;;;16.48;3.38;;;;;;;;;;527785;28;1019;-81
2022/02/22 00:18:49;;;;;;;16.27;3.37;;;;;;;;;;530155;27;764;-81
2022/02/22 00:19:05;;;;;;;15.88;3.20;;;;;;;;;;530342;27;973;-83
2022/02/22 00:19:21;;;;;;;16.83;3.30;;;;;;;;;;528496;28;1335;-80
2022/02/22 00:19:36;;;;;;;18.42;3.65;;;;;;;;;;528621;28;847;-80
2022/02/22 00:19:51;;;;;;;18.97;3.57;;;;;;;;;;525999;28;841;-81
2022/02/22 00:20:09;;;;;;;18.53;3.53;;;;;;;;;;526029;28;1586;-81
2022/02/22 00:20:24;;;;;;;16.42;3.38;;;;;;;;;;525466;28;1278;-81
2022/02/22 00:20:41;;;;;;;14.97;3.00;;;;;;;;;;524123;28;839;-80
2022/02/22 00:20:57;;;;;;;17.20;2.97;;;;;;;;;;523850;28;839;-80
2022/02/22 00:21:12;;;;;;;16.63;3.28;;;;;;;;;;525713;28;780;-81
2022/02/22 00:21:27;;;;;;;16.67;3.43;;;;;;;;;;525948;28;799;-81
2022/02/22 00:21:43;;;;;;;18.05;3.47;;;;;;;;;;526973;28;811;-80
2022/02/22 00:21:58;;;;;;;17.43;3.73;;;;;;;;;;528185;28;756;-81
2022/02/22 00:22:13;;;;;;;16.67;3.67;;;;;;;;;;527453;28;1255;-81
2022/02/22 00:22:29;;;;;;;18.85;3.50;;;;;;;;;;526011;28;1285;-81
2022/02/22 00:22:44;;;;;;;19.00;3.40;;;;;;;;;;526324;28;874;-81
2022/02/22 00:23:02;;;;;;;17.83;3.42;;;;;;;;;;528294;28;783;-82
2022/02/22 00:23:17;;;;;;;15.52;3.38;;;;;;;;;;528587;28;799;-80
2022/02/22 00:23:32;;;;;;;15.95;3.33;;;;;;;;;;528320;28;831;-81
2022/02/22 00:23:48;;;;;;;16.53;3.13;;;;;;;;;;528547;28;789;-82
2022/02/22 00:24:03;;;;;;;15.77;2.83;;;;;;;;;;525885;28;1130;-81
2022/02/22 00:24:19;;;;;;;15.13;2.85;;;;;;;;;;524849;28;1162;-80
2022/02/22 00:24:34;;;;;;;16.00;2.93;;;;;;;;;;526355;28;863;-80
2022/02/22 00:24:50;;;;;;;18.30;3.37;;;;;;;;;;525901;28;752;-81
2022/02/22 00:25:06;;;;;;;16.73;3.35;;;;;;;;;;526893;28;1508;-81
2022/02/22 00:25:21;;;;;;;16.92;3.30;;;;;;;;;;528566;28;1020;-82
2022/02/22 00:25:37;;;;;;;17.97;3.40;;;;;;;;;;528355;28;843;-81
2022/02/22 00:25:52;;;;;;;16.77;3.30;;;;;;;;;;526369;28;1254;-81
2022/02/22 00:26:07;;;;;;;17.15;3.28;;;;;;;;;;529133;27;938;-82
2022/02/22 00:26:23;;;;;;;17.70;3.37;;;;;;;;;;530335;27;1356;-81
2022/02/22 00:26:38;;;;;;;17.13;3.17;;;;;;;;;;530420;27;708;-80
2022/02/22 00:26:53;;;;;;;15.73;3.00;;;;;;;;;;528233;28;1383;-80
2022/02/22 00:27:08;;;;;;;16.37;3.00;;;;;;;;;;527716;28;806;-80
2022/02/22 00:27:24;;;;;;;16.97;3.00;;;;;;;;;;526274;28;1128;-79
2022/02/22 00:27:43;;;;;;;18.30;3.20;;;;;;;;;;526431;28;975;-80
2022/02/22 00:27:59;;;;;;;16.60;3.13;;;;;;;;;;526407;28;823;-80
2022/02/22 00:28:14;;;;;;;18.17;3.37;;;;;;;;;;524917;28;1210;-79
2022/02/22 00:28:30;;;;;;;21.17;3.43;;;;;;;;;;524197;28;1261;-79
2022/02/22 00:28:46;;;;;;;19.98;3.50;;;;;;;;;;524176;28;1206;-80
2022/02/22 00:29:01;;;;;;;19.20;3.60;;;;;;;;;;523647;28;1247;-81
2022/02/22 00:29:17;;;;;;;19.77;3.63;;;;;;;;;;522242;28;1296;-80
2022/02/22 00:29:32;;;;;;;20.88;3.80;;;;;;;;;;522201;28;733;-81
2022/02/22 00:29:47;;;;;;;19.93;3.63;;;;;;;;;;521787;28;1256;-81
2022/02/22 00:30:03;;;;;;;17.47;3.30;;;;;;;;;;522871;28;1536;-82
2022/02/22 00:30:19;;;;;;;18.35;3.25;;;;;;;;;;524481;28;1184;-81
2022/02/22 00:30:34;;;;;;;17.77;3.40;;;;;;;;;;526244;28;725;-83
2022/02/22 00:30:50;;;;;;;16.92;3.50;;;;;;;;;;526155;28;753;-80
2022/02/22 00:31:05;;;;;;;19.67;3.58;;;;;;;;;;524760;28;890;-82
2022/02/22 00:31:20;;;;;;;18.97;3.40;;;;;;;;;;527558;27;1285;-81
2022/02/22 00:31:36;;;;;;;18.30;3.23;;;;;;;;;;526101;28;1366;-81
2022/02/22 00:31:51;;;;;;;16.35;3.05;;;;;;;;;;528065;27;1373;-80
2022/02/22 00:32:07;;;;;;;16.30;3.13;;;;;;;;;;530020;27;843;-81
2022/02/22 00:32:22;;;;;;;17.77;3.25;;;;;;;;;;525933;28;1287;-80
2022/02/22 00:32:39;;;;;;;17.17;3.23;;;;;;;;;;526311;28;828;-80
2022/02/22 00:32:55;;;;;;;17.02;3.40;;;;;;;;;;526431;28;819;-80
2022/02/22 00:33:10;;;;;;;16.75;3.42;;;;;;;;;;526605;28;943;-81
2022/02/22 00:33:28;;;;;;;17.60;3.20;;;;;;;;;;530601;27;1224;-81
2022/02/22 00:33:44;;;;;;;20.13;3.40;;;;;;;;;;530794;27;992;-82
2022/02/22 00:33:59;;;;;;;19.30;3.58;;;;;;;;;;530455;27;1247;-80
2022/02/22 00:34:15;;;;;;;16.57;3.53;;;;;;;;;;530578;27;950;-80
2022/02/22 00:34:31;;;;;;;17.92;3.63;;;;;;;;;;530508;27;870;-80
2022/02/22 00:34:46;;;;;;;19.77;3.67;;;;;;;;;;530325;27;756;-80
2022/02/22 00:35:01;;;;;;;18.37;3.73;;;;;;;;;;529597;27;1517;-83
2022/02/22 00:35:16;;;;;;;18.93;3.60;;;;;;;;;;528898;27;1103;-82
2022/02/22 00:35:32;;;;;;;18.85;3.38;;;;;;;;;;529029;27;812;-81
2022/02/22 00:35:47;;;;;;;17.23;3.40;;;;;;;;;;530305;27;804;-80
2022/02/22 00:36:03;;;;;;;19.13;3.43;;;;;;;;;;527998;28;1173;-80
2022/02/22 00:36:18;;;;;;;17.77;3.40;;;;;;;;;;526412;28;1021;-81
2022/02/22 00:36:34;;;;;;;15.87;3.23;;;;;;;;;;523962;28;1123;-81
2022/02/22 00:36:49;;;;;;;16.75;3.20;;;;;;;;;;524291;28;951;-80
2022/02/22 00:37:05;;;;;;;17.95;3.58;;;;;;;;;;524607;28;1930;-80
2022/02/22 00:37:20;;;;;;;18.67;3.50;;;;;;;;;;526190;28;1257;-80
2022/02/22 00:37:35;;;;;;;16.10;3.07;;;;;;;;;;524164;28;1047;-80
2022/02/22 00:37:51;;;;;;;15.27;2.90;;;;;;;;;;524474;28;1210;-81
2022/02/22 00:38:07;;;;;;;18.55;3.33;;;;;;;;;;526261;28;1021;-81
2022/02/22 00:38:23;;;;;;;17.60;3.37;;;;;;;;;;526677;28;1131;-81
2022/02/22 00:38:38;;;;;;;17.52;3.13;;;;;;;;;;528470;28;1025;-81
2022/02/22 00:38:53;;;;;;;17.97;3.40;;;;;;;;;;527943;28;877;-81
2022/02/22 00:39:09;;;;;;;16.23;3.28;;;;;;;;;;528363;27;780;-82
2022/02/22 00:39:24;;;;;;;15.70;3.17;;;;;;;;;;528249;28;1134;-80
2022/02/22 00:39:39;;;;;;;16.50;3.33;;;;;;;;;;528481;28;846;-81
2022/02/22 00:39:55;;;;;;;17.83;3.37;;;;;;;;;;528294;28;1162;-81
2022/02/22 00:40:12;;;;;;;17.90;3.50;;;;;;;;;;526060;28;1542;-80
2022/02/22 00:40:27;;;;;;;18.48;3.50;;;;;;;;;;521829;28;1452;-79
2022/02/22 00:40:43;;;;;;;18.63;3.50;;;;;;;;;;526239;28;1163;-80
2022/02/22 00:40:58;;;;;;;19.03;3.60;;;;;;;;;;525823;28;863;-80
2022/02/22 00:41:13;;;;;;;19.02;3.63;;;;;;;;;;524702;28;879;-80
2022/02/22 00:41:29;;;;;;;16.83;3.43;;;;;;;;;;523661;28;1175;-80
2022/02/22 00:41:44;;;;;;;17.70;3.50;;;;;;;;;;524607;28;705;-79
2022/02/22 00:41:59;;;;;;;17.57;3.50;;;;;;;;;;526258;28;1117;-80
2022/02/22 00:42:15;;;;;;;18.10;3.30;;;;;;;;;;524741;28;824;-80
2022/02/22 00:42:30;;;;;;;21.87;3.43;;;;;;;;;;522508;28;1179;-80
2022/02/22 00:42:45;;;;;;;21.05;3.50;;;;;;;;;;524402;28;1266;-82
2022/02/22 00:43:01;;;;;;;18.53;3.40;;;;;;;;;;524143;28;1144;-81
2022/02/22 00:43:16;;;;;;;19.13;3.60;;;;;;;;;;524648;28;741;-81
2022/02/22 00:43:31;;;;;;;18.07;3.83;;;;;;;;;;526582;28;903;-81
2022/02/22 00:43:47;;;;;;;16.00;3.40;;;;;;;;;;528287;28;886;-81
2022/02/22 00:44:02;;;;;;;16.03;3.17;;;;;;;;;;530273;27;953;-81
2022/02/22 00:44:18;;;;;;;16.48;3.13;;;;;;;;;;530717;27;930;-81
2022/02/22 00:44:34;;;;;;;18.13;3.25;;;;;;;;;;530747;27;822;-81
2022/02/22 00:44:49;;;;;;;19.60;3.43;;;;;;;;;;528271;28;1150;-81
2022/02/22 00:45:07;;;;;;;21.20;3.55;;;;;;;;;;527735;28;1605;-80
2022/02/22 00:45:22;;;;;;;20.45;3.50;;;;;;;;;;525906;28;1398;-80
2022/02/22 00:45:37;;;;;;;17.58;3.05;;;;;;;;;;523600;28;1433;-80
2022/02/22 00:45:52;;;;;;;18.80;3.10;;;;;;;;;;524513;28;808;-80
2022/02/22 00:46:08;;;;;;;20.93;3.47;;;;;;;;;;526067;28;1159;-80
2022/02/22 00:46:23;;;;;;;21.52;3.55;;;;;;;;;;526167;28;1194;-80
2022/02/22 00:46:38;;;;;;;20.67;3.43;;;;;;;;;;526358;28;721;-80
2022/02/22 00:46:54;;;;;;;18.90;3.50;;;;;;;;;;526441;28;748;-80
2022/02/22 00:47:09;;;;;;;17.10;3.38;;;;;;;;;;525766;28;733;-80
2022/02/22 00:47:24;;;;;;;18.63;3.40;;;;;;;;;;524189;28;1254;-80
2022/02/22 00:47:40;;;;;;;19.50;3.40;;;;;;;;;;523967;28;1269;-80
2022/02/22 00:47:55;;;;;;;19.10;3.60;;;;;;;;;;523793;28;1195;-80
2022/02/22 00:48:10;;;;;;;20.43;3.83;;;;;;;;;;524527;28;1461;-80
2022/02/22 00:48:25;;;;;;;18.67;3.37;;;;;;;;;;524892;28;1441;-80
2022/02/22 00:48:41;;;;;;;19.10;3.20;;;;;;;;;;524973;28;1472;-81
2022/02/22 00:48:56;;;;;;;21.27;3.53;;;;;;;;;;526139;28;1274;-81
2022/02/22 00:49:11;;;;;;;19.70;3.60;;;;;;;;;;525896;28;1258;-80
2022/02/22 00:49:26;;;;;;;18.93;3.43;;;;;;;;;;528344;27;1206;-81
2022/02/22 00:49:42;;;;;;;20.10;3.53;;;;;;;;;;530386;27;894;-80
2022/02/22 00:49:57;;;;;;;17.60;3.53;;;;;;;;;;530192;27;1648;-80
2022/02/22 00:50:13;;;;;;;17.85;3.47;;;;;;;;;;532238;27;853;-80
2022/02/22 00:50:28;;;;;;;17.73;3.43;;;;;;;;;;532899;27;752;-80
2022/02/22 00:50:44;;;;;;;16.00;3.50;;;;;;;;;;532561;27;794;-80
2022/02/22 00:50:59;;;;;;;16.30;3.40;;;;;;;;;;532353;27;941;-80
2022/02/22 00:51:14;;;;;;;17.40;3.27;;;;;;;;;;532572;27;751;-80
2022/02/22 00:51:29;;;;;;;16.40;3.30;;;;;;;;;;532832;27;744;-79
2022/02/22 00:51:45;;;;;;;17.67;3.30;;;;;;;;;;530513;27;1231;-81
2022/02/22 00:52:01;;;;;;;18.60;3.30;;;;;;;;;;530309;27;1221;-81
2022/02/22 00:52:16;;;;;;;18.35;3.40;;;;;;;;;;528869;27;759;-82
2022/02/22 00:52:31;;;;;;;19.47;3.53;;;;;;;;;;528307;28;982;-80
2022/02/22 00:52:47;;;;;;;17.85;3.47;;;;;;;;;;528429;28;790;-81
2022/02/22 00:53:02;;;;;;;17.47;3.37;;;;;;;;;;526349;28;1175;-80
2022/02/22 00:53:17;;;;;;;17.50;3.20;;;;;;;;;;526232;28;870;-81
2022/02/22 00:53:33;;;;;;;18.10;3.22;;;;;;;;;;526096;28;756;-80
2022/02/22 00:53:49;;;;;;;18.27;3.40;;;;;;;;;;526385;28;928;-80
2022/02/22 00:54:04;;;;;;;16.65;3.33;;;;;;;;;;527368;28;763;-80
2022/02/22 00:54:19;;;;;;;16.30;3.27;;;;;;;;;;526015;28;808;-79
2022/02/22 00:54:34;;;;;;;17.58;3.50;;;;;;;;;;526218;28;950;-81
2022/02/22 00:54:50;;;;;;;18.87;3.57;;;;;;;;;;526364;28;965;-81
2022/02/22 00:55:06;;;;;;;19.50;3.60;;;;;;;;;;528401;27;1618;-81
2022/02/22 00:55:23;;;;;;;20.38;3.85;;;;;;;;;;529674;27;1006;-80
2022/02/22 00:55:38;;;;;;;19.33;3.63;;;;;;;;;;528785;28;774;-79
2022/02/22 00:55:53;;;;;;;18.25;3.30;;;;;;;;;;527960;28;882;-79
2022/02/22 00:56:09;;;;;;;16.97;3.27;;;;;;;;;;529629;27;736;-80
2022/02/22 00:56:24;;;;;;;16.23;3.40;;;;;;;;;;530141;27;1240;-80
2022/02/22 00:56:39;;;;;;;16.50;3.35;;;;;;;;;;530615;27;795;-81
2022/02/22 00:56:55;;;;;;;17.60;3.27;;;;;;;;;;528249;28;1910;-80
2022/02/22 00:57:11;;;;;;;19.10;3.30;;;;;;;;;;527261;28;858;-80
2022/02/22 00:57:26;;;;;;;17.93;3.30;;;;;;;;;;526482;28;945;-79
2022/02/22 00:57:43;;;;;;;16.77;3.33;;;;;;;;;;526149;28;942;-81
2022/02/22 00:57:58;;;;;;;19.10;3.67;;;;;;;;;;526132;28;807;-81
2022/02/22 00:58:14;;;;;;;17.90;3.50;;;;;;;;;;526443;28;879;-80
2022/02/22 00:58:29;;;;;;;15.43;3.20;;;;;;;;;;528335;28;890;-80
2022/02/22 00:58:44;;;;;;;16.60;3.25;;;;;;;;;;528893;27;743;-81
2022/02/22 00:59:00;;;;;;;17.73;3.70;;;;;;;;;;530387;27;716;-80
2022/02/22 00:59:15;;;;;;;20.13;3.93;;;;;;;;;;530452;27;709;-81
2022/02/22 00:59:30;;;;;;;19.92;3.38;;;;;;;;;;530609;27;839;-81
2022/02/22 00:59:46;;;;;;;18.57;3.13;;;;;;;;;;530651;27;917;-80
2022/02/22 01:00:02;;;;;;;19.80;3.57;;;;;;;;;;530431;27;1573;-81
2022/02/22 01:00:18;;;;;;;19.40;3.70;;;;;;;;;;531566;27;1215;-82
2022/02/22 01:00:34;;;;;;;19.08;3.50;;;;;;;;;;529179;27;1356;-81
2022/02/22 01:00:49;;;;;;;19.58;3.67;;;;;;;;;;528617;28;1312;-81
2022/02/22 01:01:04;;;;;;;19.70;3.60;;;;;;;;;;525689;28;1411;-80
2022/02/22 01:01:20;;;;;;;19.73;3.60;;;;;;;;;;524277;28;771;-81
2022/02/22 01:01:35;;;;;;;17.48;3.60;;;;;;;;;;522110;28;934;-80
2022/02/22 01:01:51;;;;;;;18.87;3.80;;;;;;;;;;522308;28;990;-81
2022/02/22 01:02:06;;;;;;;20.20;3.87;;;;;;;;;;520399;28;1164;-81
2022/02/22 01:02:21;;;;;;;17.15;3.30;;;;;;;;;;522009;28;867;-80
2022/02/22 01:02:38;;;;;;;17.50;3.40;;;;;;;;;;524670;28;744;-80
2022/02/22 01:02:53;;;;;;;17.80;3.47;;;;;;;;;;526817;28;768;-80
2022/02/22 01:03:08;;;;;;;20.33;3.67;;;;;;;;;;526329;28;1161;-79
2022/02/22 01:03:23;;;;;;;20.53;3.60;;;;;;;;;;526739;28;1309;-80
2022/02/22 01:03:39;;;;;;;18.67;3.67;;;;;;;;;;528534;28;740;-79
2022/02/22 01:03:54;;;;;;;19.07;3.63;;;;;;;;;;528697;27;1161;-80
2022/02/22 01:04:09;;;;;;;17.47;3.27;;;;;;;;;;528145;28;1166;-81
2022/02/22 01:04:25;;;;;;;17.90;3.57;;;;;;;;;;525953;28;1242;-79
2022/02/22 01:04:40;;;;;;;18.33;3.60;;;;;;;;;;526303;28;744;-80
2022/02/22 01:04:55;;;;;;;18.63;3.30;;;;;;;;;;525853;28;832;-81
2022/02/22 01:05:11;;;;;;;20.50;3.50;;;;;;;;;;525022;28;1622;-82
2022/02/22 01:05:26;;;;;;;21.73;3.85;;;;;;;;;;524000;28;750;-80
2022/02/22 01:05:42;;;;;;;22.43;4.07;;;;;;;;;;526093;28;764;-80
2022/02/22 01:05:57;;;;;;;19.02;3.75;;;;;;;;;;528768;28;756;-80
2022/02/22 01:06:12;;;;;;;18.03;3.60;;;;;;;;;;529156;27;902;-80
2022/02/22 01:06:28;;;;;;;18.63;3.75;;;;;;;;;;530265;27;755;-81
2022/02/22 01:06:43;;;;;;;16.97;3.50;;;;;;;;;;530530;27;921;-81
2022/02/22 01:06:58;;;;;;;17.87;3.47;;;;;;;;;;528434;28;1386;-80
2022/02/22 01:07:16;;;;;;;19.02;3.72;;;;;;;;;;527804;28;1195;-81
2022/02/22 01:07:32;;;;;;;19.20;3.85;;;;;;;;;;528446;28;846;-82
2022/02/22 01:07:48;;;;;;;20.75;3.65;;;;;;;;;;528344;28;835;-79
2022/02/22 01:08:03;;;;;;;19.85;3.55;;;;;;;;;;528624;28;776;-80
2022/02/22 01:08:19;;;;;;;17.63;3.63;;;;;;;;;;528516;28;748;-80
2022/02/22 01:08:34;;;;;;;19.57;3.80;;;;;;;;;;525995;28;1255;-80
2022/02/22 01:08:49;;;;;;;20.93;4.03;;;;;;;;;;526875;28;855;-80
2022/02/22 01:09:06;;;;;;;20.00;3.77;;;;;;;;;;528631;27;969;-81
2022/02/22 01:09:22;;;;;;;18.00;3.20;;;;;;;;;;530482;27;743;-81
2022/02/22 01:09:37;;;;;;;20.42;3.42;;;;;;;;;;530590;27;856;-81
2022/02/22 01:09:52;;;;;;;20.95;3.70;;;;;;;;;;530235;27;1279;-80
2022/02/22 01:10:09;;;;;;;17.63;3.80;;;;;;;;;;529304;27;1569;-81
2022/02/22 01:10:24;;;;;;;18.80;4.00;;;;;;;;;;530165;27;822;-80
2022/02/22 01:10:39;;;;;;;19.48;3.85;;;;;;;;;;530084;27;1116;-80
2022/02/22 01:10:55;;;;;;;19.87;3.47;;;;;;;;;;530535;27;833;-81
2022/02/22 01:11:10;;;;;;;21.57;3.70;;;;;;;;;;528123;28;1243;-81
2022/02/22 01:11:26;;;;;;;19.63;3.58;;;;;;;;;;528400;28;902;-80
2022/02/22 01:11:42;;;;;;;17.97;3.60;;;;;;;;;;528589;28;847;-80
2022/02/22 01:11:57;;;;;;;18.52;3.60;;;;;;;;;;530590;27;653;-80
2022/02/22 01:12:14;;;;;;;18.13;3.17;;;;;;;;;;529359;27;981;-79
2022/02/22 01:12:30;;;;;;;18.67;3.53;;;;;;;;;;528689;28;791;-81
2022/02/22 01:12:45;;;;;;;18.07;3.90;;;;;;;;;;528000;28;918;-81
2022/02/22 01:13:00;;;;;;;16.95;3.60;;;;;;;;;;529122;28;919;-80
2022/02/22 01:13:15;;;;;;;15.80;3.47;;;;;;;;;;530725;27;732;-83
2022/02/22 01:13:31;;;;;;;18.07;3.70;;;;;;;;;;531068;27;934;-81
2022/02/22 01:13:46;;;;;;;19.83;3.77;;;;;;;;;;530280;27;1289;-81
2022/02/22 01:14:02;;;;;;;19.98;3.90;;;;;;;;;;529968;27;1072;-81
2022/02/22 01:14:17;;;;;;;17.47;3.77;;;;;;;;;;530061;27;1177;-81
2022/02/22 01:14:32;;;;;;;18.42;3.95;;;;;;;;;;528204;28;1203;-81
2022/02/22 01:14:48;;;;;;;20.00;4.10;;;;;;;;;;527410;28;1166;-81
2022/02/22 01:15:04;;;;;;;20.33;4.07;;;;;;;;;;525106;28;1661;-81
2022/02/22 01:15:19;;;;;;;19.13;3.78;;;;;;;;;;525257;28;942;-81
2022/02/22 01:15:34;;;;;;;17.88;3.50;;;;;;;;;;522983;28;1330;-80
2022/02/22 01:15:50;;;;;;;21.97;3.70;;;;;;;;;;521727;28;848;-83
2022/02/22 01:16:05;;;;;;;22.67;3.70;;;;;;;;;;523986;28;694;-81
2022/02/22 01:16:21;;;;;;;19.83;3.50;;;;;;;;;;526106;28;804;-81
2022/02/22 01:16:36;;;;;;;18.02;3.50;;;;;;;;;;526596;28;677;-82
2022/02/22 01:16:52;;;;;;;19.23;3.50;;;;;;;;;;528241;28;1637;-83
2022/02/22 01:17:07;;;;;;;22.30;3.77;;;;;;;;;;529162;28;1975;-82
2022/02/22 01:17:22;;;;;;;19.85;3.83;;;;;;;;;;530526;27;1458;-82
2022/02/22 01:17:38;;;;;;;19.00;3.60;;;;;;;;;;530439;27;748;-81
2022/02/22 01:17:53;;;;;;;24.15;3.85;;;;;;;;;;530456;27;1320;-80
2022/02/22 01:18:08;;;;;;;23.33;4.00;;;;;;;;;;530513;27;802;-82
2022/02/22 01:18:24;;;;;;;21.90;4.03;;;;;;;;;;530654;27;839;-81
2022/02/22 01:18:39;;;;;;;21.15;3.55;;;;;;;;;;530628;27;918;-82
2022/02/22 01:18:54;;;;;;;20.07;3.33;;;;;;;;;;530331;27;1291;-80
2022/02/22 01:19:10;;;;;;;20.70;3.80;;;;;;;;;;530026;27;1162;-80
2022/02/22 01:19:25;;;;;;;19.10;3.85;;;;;;;;;;529446;27;1671;-81
2022/02/22 01:19:40;;;;;;;18.73;3.70;;;;;;;;;;528916;28;1427;-81
2022/02/22 01:19:56;;;;;;;20.17;3.70;;;;;;;;;;530397;27;1455;-80
2022/02/22 01:20:12;;;;;;;19.87;3.90;;;;;;;;;;526282;28;1546;-80
2022/02/22 01:20:27;;;;;;;19.67;3.95;;;;;;;;;;526049;28;1004;-81
2022/02/22 01:20:42;;;;;;;21.50;3.90;;;;;;;;;;526196;28;1131;-81
2022/02/22 01:20:58;;;;;;;20.92;4.03;;;;;;;;;;526401;28;1128;-80
2022/02/22 01:21:13;;;;;;;18.23;3.73;;;;;;;;;;526532;28;918;-81
2022/02/22 01:21:30;;;;;;;19.23;3.80;;;;;;;;;;524294;28;1574;-80
2022/02/22 01:21:45;;;;;;;20.63;3.90;;;;;;;;;;522169;28;1263;-81
2022/02/22 01:22:01;;;;;;;18.60;3.70;;;;;;;;;;522621;28;883;-81
2022/02/22 01:22:16;;;;;;;17.33;3.47;;;;;;;;;;525864;28;819;-81
2022/02/22 01:22:32;;;;;;;18.97;3.60;;;;;;;;;;526324;28;1361;-81
2022/02/22 01:22:51;;;;;;;19.88;3.78;;;;;;;;;;528001;28;1127;-81
2022/02/22 01:23:06;;;;;;;19.23;3.65;;;;;;;;;;527970;28;1084;-82
2022/02/22 01:23:22;;;;;;;18.40;3.50;;;;;;;;;;527940;28;961;-81
2022/02/22 01:23:37;;;;;;;18.40;3.40;;;;;;;;;;529039;27;783;-82
2022/02/22 01:23:52;;;;;;;19.40;3.60;;;;;;;;;;530529;27;902;-81
2022/02/22 01:24:08;;;;;;;22.07;3.83;;;;;;;;;;530015;27;854;-81
2022/02/22 01:24:23;;;;;;;22.23;3.92;;;;;;;;;;529108;28;1285;-80
2022/02/22 01:24:39;;;;;;;19.70;3.67;;;;;;;;;;530487;27;997;-80
2022/02/22 01:24:54;;;;;;;18.53;3.60;;;;;;;;;;530073;27;993;-80
2022/02/22 01:25:10;;;;;;;19.07;3.60;;;;;;;;;;528441;28;1530;-80
2022/02/22 01:25:26;;;;;;;19.92;3.63;;;;;;;;;;530052;27;767;-81
2022/02/22 01:25:41;;;;;;;18.20;3.55;;;;;;;;;;528132;28;857;-80
2022/02/22 01:25:58;;;;;;;16.67;3.37;;;;;;;;;;528350;28;708;-80
2022/02/22 01:26:14;;;;;;;20.42;3.80;;;;;;;;;;528775;28;1257;-81
2022/02/22 01:26:30;;;;;;;21.30;4.10;;;;;;;;;;530596;27;992;-80
2022/02/22 01:26:45;;;;;;;21.48;3.90;;;;;;;;;;530454;28;748;-80
2022/02/22 01:27:00;;;;;;;21.55;3.80;;;;;;;;;;528353;28;1360;-80
2022/02/22 01:27:16;;;;;;;20.37;3.70;;;;;;;;;;526426;28;938;-81
2022/02/22 01:27:31;;;;;;;21.80;3.93;;;;;;;;;;523947;28;1131;-82
2022/02/22 01:27:46;;;;;;;20.38;3.80;;;;;;;;;;524203;28;849;-80
2022/02/22 01:28:02;;;;;;;18.10;3.77;;;;;;;;;;524403;28;838;-80
2022/02/22 01:28:17;;;;;;;19.43;3.87;;;;;;;;;;524116;28;1154;-79
2022/02/22 01:28:33;;;;;;;22.48;4.00;;;;;;;;;;524138;28;749;-79
2022/02/22 01:28:48;;;;;;;20.00;3.70;;;;;;;;;;522154;28;1351;-80
2022/02/22 01:29:04;;;;;;;18.27;3.65;;;;;;;;;;523642;28;1436;-80
2022/02/22 01:29:20;;;;;;;19.97;4.10;;;;;;;;;;524452;28;780;-79
2022/02/22 01:29:35;;;;;;;19.65;4.00;;;;;;;;;;523918;28;1141;-79
2022/02/22 01:29:50;;;;;;;19.83;3.70;;;;;;;;;;524013;28;1335;-81
2022/02/22 01:30:09;;;;;;;19.47;3.60;;;;;;;;;;524088;28;1499;-80
2022/02/22 01:30:25;;;;;;;19.08;3.60;;;;;;;;;;525995;28;803;-80
2022/02/22 01:30:40;;;;;;;20.67;3.65;;;;;;;;;;525349;28;795;-79
2022/02/22 01:30:55;;;;;;;22.80;3.80;;;;;;;;;;523917;28;1131;-80
2022/02/22 01:31:11;;;;;;;20.97;3.93;;;;;;;;;;525640;28;721;-81
2022/02/22 01:31:27;;;;;;;21.17;4.00;;;;;;;;;;525993;28;768;-79
2022/02/22 01:31:42;;;;;;;21.33;4.03;;;;;;;;;;526827;28;768;-80
2022/02/22 01:31:58;;;;;;;19.00;3.90;;;;;;;;;;526982;28;1108;-80
2022/02/22 01:32:13;;;;;;;18.95;3.90;;;;;;;;;;528243;28;1171;-80
2022/02/22 01:32:29;;;;;;;22.03;4.33;;;;;;;;;;525931;28;1344;-80
2022/02/22 01:32:44;;;;;;;21.87;4.20;;;;;;;;;;525857;28;1310;-81
2022/02/22 01:32:59;;;;;;;21.60;3.83;;;;;;;;;;526077;28;946;-80
2022/02/22 01:33:15;;;;;;;21.20;3.73;;;;;;;;;;526202;28;812;-80
2022/02/22 01:33:30;;;;;;;18.73;3.55;;;;;;;;;;525909;28;748;-79
2022/02/22 01:33:45;;;;;;;19.80;3.73;;;;;;;;;;526212;28;886;-79
2022/02/22 01:34:01;;;;;;;20.30;3.97;;;;;;;;;;525920;28;1116;-80
2022/02/22 01:34:16;;;;;;;20.17;3.75;;;;;;;;;;526446;28;970;-81
2022/02/22 01:34:31;;;;;;;20.27;3.77;;;;;;;;;;528410;28;934;-81
2022/02/22 01:34:46;;;;;;;19.97;3.93;;;;;;;;;;530115;28;799;-79
2022/02/22 01:35:03;;;;;;;19.27;3.75;;;;;;;;;;528662;27;1278;-83
2022/02/22 01:35:18;;;;;;;19.42;3.53;;;;;;;;;;528784;28;894;-81
2022/02/22 01:35:33;;;;;;;18.53;3.50;;;;;;;;;;527089;28;1206;-82